Time;durP1;ratioP1;P1;durP2;ratioP2;P2;SDS_P1;SDS_P2;PMS_P1;PMS_P2;Temp;Humidity;BMP_temperature;BMP_pressure;BME280_temperature;BME280_humidity;BME280_pressure;Samples;Min_cycle;Max_cycle;Signal;HPM_P1;HPM_P2
2023/07/18 00:01:27;;;;;;;;;;;23.20;50.90;;;23.41;34.81;99212.28;4989926;28;114317;-77
2023/07/18 00:03:54;;;;;;;;;;;23.20;50.90;;;23.38;35.28;99217.50;4971396;28;123871;-77
2023/07/18 00:06:24;;;;;;;;;;;23.20;51.00;;;23.37;35.17;99215.88;4982645;28;124328;-78
2023/07/18 00:08:51;;;;;;;;;;;23.10;51.10;;;23.37;35.13;99221.53;4989830;28;115150;-78
2023/07/18 00:11:17;;;;;;;;;;;23.10;51.30;;;23.36;35.33;99219.88;4992286;28;112421;-78
2023/07/18 00:13:46;;;;;;;;;;;23.10;51.50;;;23.37;35.49;99220.69;4972638;28;123848;-77
2023/07/18 00:16:12;;;;;;;;;;;23.10;51.60;;;23.36;35.43;99219.88;4981378;28;124210;-78
2023/07/18 00:18:38;;;;;;;;;;;23.10;51.80;;;23.35;35.75;99229.56;4984572;28;113621;-78
2023/07/18 00:21:05;;;;;;;;;;;23.10;52.10;;;23.35;35.85;99218.28;4982178;28;113671;-77
2023/07/18 00:23:31;;;;;;;;;;;23.10;52.20;;;23.34;35.99;99216.63;4989807;28;124151;-78
2023/07/18 00:25:57;;;;;;;;;;;23.10;52.40;;;23.34;35.87;99211.00;4986802;28;123863;-77
2023/07/18 00:28:24;;;;;;;;;;;23.10;52.40;;;23.31;35.82;99217.41;4992502;28;115364;-78
2023/07/18 00:30:50;;;;;;;;;;;23.00;52.20;;;23.30;36.14;99215.81;4974984;28;113937;-78
2023/07/18 00:33:16;;;;;;;;;;;23.00;52.50;;;23.29;36.24;99219.84;4977382;28;124836;-77
2023/07/18 00:35:43;;;;;;;;;;;23.00;52.60;;;23.29;36.25;99225.47;4988238;28;123617;-78
2023/07/18 00:38:11;;;;;;;;;;;23.00;52.80;;;23.28;36.35;99226.66;4986759;28;114622;-77
2023/07/18 00:40:41;;;;;;;;;;;23.00;52.90;;;23.26;36.26;99223.41;4986382;28;114232;-77
2023/07/18 00:43:18;;;;;;;;;;;23.00;53.00;;;23.24;36.58;99222.16;4989540;28;124257;-78
2023/07/18 00:45:47;;;;;;;;;;;23.00;53.10;;;23.22;36.79;99227.41;4974989;28;122947;-78
2023/07/18 00:48:16;;;;;;;;;;;22.90;53.20;;;23.19;36.60;99226.16;4991335;28;113921;-78
2023/07/18 00:50:45;;;;;;;;;;;23.00;53.40;;;23.17;37.13;99227.75;4988278;28;113530;-78
2023/07/18 00:53:11;;;;;;;;;;;22.90;53.60;;;23.16;37.05;99226.94;4987338;28;124286;-77
2023/07/18 00:55:40;;;;;;;;;;;22.90;53.80;;;23.14;37.19;99218.06;4973200;28;123808;-77
2023/07/18 00:58:08;;;;;;;;;;;22.90;54.00;;;23.14;37.41;99213.22;4973262;28;113341;-78
2023/07/18 01:00:34;;;;;;;;;;;22.90;54.20;;;23.13;37.33;99216.41;4988147;28;114634;-78
2023/07/18 01:03:00;;;;;;;;;;;22.90;54.40;;;23.10;37.63;99206.72;4989223;28;124164;-77
2023/07/18 01:05:29;;;;;;;;;;;22.90;54.50;;;23.10;37.71;99205.94;4990863;28;123073;-79
2023/07/18 01:08:00;;;;;;;;;;;22.90;54.70;;;23.08;38.04;99209.16;4988547;28;114180;-78
2023/07/18 01:10:28;;;;;;;;;;;22.80;54.90;;;23.07;37.75;99210.31;4989771;28;114282;-78
2023/07/18 01:13:01;;;;;;;;;;;22.80;55.30;;;23.05;37.84;99214.72;4988593;28;124107;-78
2023/07/18 01:15:32;;;;;;;;;;;22.80;55.10;;;23.04;38.05;99213.13;4984322;28;124778;-78
2023/07/18 01:18:00;;;;;;;;;;;22.80;55.20;;;23.02;37.89;99207.03;4974864;28;116050;-78
2023/07/18 01:20:28;;;;;;;;;;;22.70;55.20;;;23.02;38.12;99209.88;4990931;28;114636;-77
2023/07/18 01:22:57;;;;;;;;;;;22.80;55.30;;;23.00;38.01;99207.44;4970582;28;122919;-78
2023/07/18 01:25:26;;;;;;;;;;;22.70;55.30;;;22.98;37.97;99204.19;4981006;28;124453;-77
2023/07/18 01:27:54;;;;;;;;;;;22.70;55.40;;;22.96;38.01;99200.13;4987082;28;114363;-77
2023/07/18 01:30:22;;;;;;;;;;;22.70;55.50;;;22.92;38.46;99195.25;4988148;28;113771;-77
2023/07/18 01:32:52;;;;;;;;;;;22.60;55.50;;;22.90;38.26;99199.66;4988077;28;124396;-77
2023/07/18 01:35:25;;;;;;;;;;;22.60;55.60;;;22.87;38.38;99198.41;4989180;28;124096;-77
2023/07/18 01:37:52;;;;;;;;;;;22.60;55.70;;;22.85;38.71;99189.53;4989575;28;113478;-78
2023/07/18 01:40:22;;;;;;;;;;;22.60;55.90;;;22.83;38.59;99197.56;4987764;28;113884;-77
2023/07/18 01:42:52;;;;;;;;;;;22.60;56.00;;;22.81;38.51;99188.69;4974567;28;123727;-77
2023/07/18 01:45:20;;;;;;;;;;;22.60;56.10;;;22.78;38.84;99194.28;4971394;28;123012;-77
2023/07/18 01:47:50;;;;;;;;;;;22.50;56.20;;;22.76;39.13;99189.03;4982965;28;114387;-77
2023/07/18 01:50:18;;;;;;;;;;;23.10;57.00;;;22.74;39.05;99193.44;4978753;28;113529;-77
2023/07/18 01:52:46;;;;;;;;;;;22.50;56.60;;;22.74;38.99;99201.88;4985331;28;124401;-79
2023/07/18 01:55:13;;;;;;;;;;;22.50;56.80;;;22.71;39.24;99195.00;4986107;28;123880;-78
2023/07/18 01:57:39;;;;;;;;;;;22.50;56.90;;;22.69;39.28;99188.94;4988267;28;114311;-78
2023/07/18 02:00:18;;;;;;;;;;;22.40;56.90;;;22.67;39.38;99194.94;4988399;28;114252;-78
2023/07/18 02:02:47;;;;;;;;;;;22.40;57.00;;;22.62;39.40;99188.84;4981155;28;123961;-79
2023/07/18 02:05:16;;;;;;;;;;;22.40;57.10;;;22.59;39.46;99187.63;4975504;28;123970;-78
2023/07/18 02:07:42;;;;;;;;;;;22.40;57.20;;;22.56;39.47;99187.56;4985941;28;115649;-79
2023/07/18 02:10:08;;;;;;;;;;;22.30;57.10;;;22.54;39.31;99184.31;4973356;28;113884;-80
2023/07/18 02:12:37;;;;;;;;;;;22.30;57.20;;;22.53;39.65;99182.72;4998850;28;124845;-78
2023/07/18 02:15:05;;;;;;;;;;;22.30;57.30;;;22.52;39.91;99178.28;4987635;28;123937;-78
2023/07/18 02:17:35;;;;;;;;;;;22.30;57.40;;;22.50;39.57;99175.84;4974279;28;113435;-77
2023/07/18 02:20:06;;;;;;;;;;;22.20;57.40;;;22.48;39.66;99170.59;4989185;28;113901;-78
2023/07/18 02:22:35;;;;;;;;;;;22.20;57.40;;;22.45;39.75;99179.81;4977872;28;124441;-79
2023/07/18 02:25:03;;;;;;;;;;;22.20;57.40;;;22.43;39.63;99178.56;4970939;28;124154;-77
2023/07/18 02:27:33;;;;;;;;;;;22.20;57.50;;;22.41;39.73;99184.59;5003039;28;114577;-79
2023/07/18 02:30:02;;;;;;;;;;;22.20;57.60;;;22.40;39.69;99190.59;4967933;28;112777;-80
2023/07/18 02:32:32;;;;;;;;;;;22.20;57.60;;;22.36;39.79;99184.13;4986533;28;124773;-79
2023/07/18 02:35:01;;;;;;;;;;;22.10;57.60;;;22.33;39.80;99185.69;4979139;28;124129;-78
2023/07/18 02:37:27;;;;;;;;;;;22.10;57.70;;;22.31;40.00;99182.44;4977246;28;114798;-78
2023/07/18 02:39:54;;;;;;;;;;;22.10;57.90;;;22.27;40.13;99181.56;4988170;28;113597;-78
2023/07/18 02:42:20;;;;;;;;;;;22.10;58.00;;;22.25;40.25;99175.53;4982455;28;124493;-76
2023/07/18 02:44:47;;;;;;;;;;;22.00;58.10;;;22.22;40.53;99176.31;4986532;28;124145;-79
2023/07/18 02:47:13;;;;;;;;;;;22.00;58.30;;;22.21;40.22;99177.47;4988540;28;114430;-78
2023/07/18 02:49:40;;;;;;;;;;;22.00;58.50;;;22.21;40.32;99180.28;4987229;28;113841;-78
2023/07/18 02:52:09;;;;;;;;;;;22.00;58.60;;;22.18;40.38;99178.22;4987405;28;124228;-78
2023/07/18 02:54:36;;;;;;;;;;;21.90;58.60;;;22.16;40.63;99192.66;4987982;28;123976;-79
2023/07/18 02:57:02;;;;;;;;;;;21.90;58.80;;;22.15;40.37;99190.25;4972786;28;114852;-78
2023/07/18 02:59:31;;;;;;;;;;;21.90;58.90;;;22.13;40.95;99189.81;4972112;28;114732;-78
2023/07/18 03:01:57;;;;;;;;;;;21.90;59.00;;;22.11;40.63;99189.38;4986985;28;124138;-78
2023/07/18 03:04:26;;;;;;;;;;;21.90;59.10;;;22.08;40.68;99188.13;4986504;28;123902;-79
2023/07/18 03:06:53;;;;;;;;;;;21.80;59.10;;;22.03;40.74;99189.28;4987830;28;116634;-79
2023/07/18 03:09:21;;;;;;;;;;;21.80;59.20;;;22.01;41.19;99188.03;4989426;28;113785;-78
2023/07/18 03:11:49;;;;;;;;;;;21.80;59.40;;;21.96;41.10;99182.75;4985776;28;124989;-77
2023/07/18 03:14:17;;;;;;;;;;;21.70;59.50;;;21.94;41.24;99182.28;4975203;28;123903;-79
2023/07/18 03:16:45;;;;;;;;;;;21.70;59.70;;;21.89;41.15;99177.78;4985046;28;115166;-79
2023/07/18 03:19:11;;;;;;;;;;;21.70;59.80;;;21.89;41.18;99194.69;4989185;28;114155;-78
2023/07/18 03:21:38;;;;;;;;;;;21.70;59.90;;;21.89;41.37;99182.63;4971218;28;123218;-79
2023/07/18 03:24:10;;;;;;;;;;;21.60;59.90;;;21.88;41.44;99170.56;4978158;28;124317;-79
2023/07/18 03:26:41;;;;;;;;;;;21.60;60.00;;;21.86;41.49;99175.75;4983868;28;114701;-80
2023/07/18 03:29:07;;;;;;;;;;;21.60;60.00;;;21.83;41.63;99176.50;4990049;28;113995;-80
2023/07/18 03:31:34;;;;;;;;;;;21.60;60.80;;;21.80;41.86;99166.81;4973402;28;122599;-80
2023/07/18 03:34:00;;;;;;;;;;;21.60;60.20;;;21.80;41.56;99163.22;4985207;28;123879;-78
2023/07/18 03:36:27;;;;;;;;;;;21.50;60.30;;;21.80;41.68;99169.63;4987747;28;114274;-77
2023/07/18 03:38:56;;;;;;;;;;;21.60;60.60;;;21.79;41.87;99168.03;4987074;28;113556;-78
2023/07/18 03:41:22;;;;;;;;;;;21.50;60.60;;;21.78;41.99;99171.22;4990593;28;124803;-78
2023/07/18 03:43:51;;;;;;;;;;;21.50;60.90;;;21.76;42.19;99174.41;4991764;28;122924;-79
2023/07/18 03:46:17;;;;;;;;;;;21.50;61.00;;;21.72;42.24;99173.53;4990521;28;115016;-79
2023/07/18 03:48:43;;;;;;;;;;;21.50;61.00;;;21.70;42.33;99180.72;5005485;28;114701;-77
2023/07/18 03:51:09;;;;;;;;;;;21.50;61.00;;;21.70;41.86;99175.91;4990633;28;124553;-79
2023/07/18 03:53:36;;;;;;;;;;;21.40;60.90;;;21.66;41.46;99180.69;4989083;28;123632;-77
2023/07/18 03:56:08;;;;;;;;;;;21.40;60.50;;;21.62;41.37;99180.59;4992226;28;114400;-78
2023/07/18 03:58:34;;;;;;;;;;;21.40;60.20;;;21.56;41.46;99178.50;4990083;28;113620;-78
2023/07/18 04:01:10;;;;;;;;;;;21.40;60.20;;;21.55;41.62;99176.88;4989548;28;124549;-77
2023/07/18 04:03:37;;;;;;;;;;;21.30;60.20;;;21.54;41.66;99167.63;4991192;28;124280;-79
2023/07/18 04:06:04;;;;;;;;;;;21.30;60.40;;;21.57;41.49;99172.50;4987939;28;115030;-79
2023/07/18 04:08:30;;;;;;;;;;;21.30;60.60;;;21.62;41.98;99171.38;4988409;28;113704;-79
2023/07/18 04:10:58;;;;;;;;;;;21.30;60.80;;;21.64;42.27;99165.38;4989672;28;124098;-79
2023/07/18 04:13:27;;;;;;;;;;;21.30;61.40;;;21.61;41.87;99172.56;4988679;28;124309;-77
2023/07/18 04:15:56;;;;;;;;;;;21.30;61.20;;;21.58;42.08;99179.75;4990060;28;114399;-78
2023/07/18 04:18:27;;;;;;;;;;;21.20;61.30;;;21.55;42.52;99174.88;4978477;28;112697;-78
2023/07/18 04:21:01;;;;;;;;;;;21.30;61.50;;;21.53;42.48;99171.63;4985354;28;123864;-79
2023/07/18 04:23:27;;;;;;;;;;;21.30;62.70;;;21.54;43.13;99169.63;4983326;28;125089;-76
2023/07/18 04:26:03;;;;;;;;;;;21.20;62.30;;;21.52;43.02;99172.84;4989526;28;114319;-77
2023/07/18 04:28:34;;;;;;;;;;;21.20;62.60;;;21.53;43.27;99176.44;4986724;28;113381;-78
2023/07/18 04:31:01;;;;;;;;;;;21.20;63.00;;;21.53;43.74;99166.00;4976358;28;124217;-78
2023/07/18 04:33:32;;;;;;;;;;;21.20;63.30;;;21.54;43.93;99170.44;4982467;28;122885;-78
2023/07/18 04:35:58;;;;;;;;;;;21.20;63.60;;;21.55;43.83;99162.84;4969083;28;116275;-79
2023/07/18 04:38:24;;;;;;;;;;;21.20;64.00;;;21.53;44.58;99166.00;4990177;28;114593;-78
2023/07/18 04:40:51;;;;;;;;;;;21.20;64.70;;;21.52;44.82;99172.84;4968022;28;123555;-79
2023/07/18 04:43:17;;;;;;;;;;;21.20;64.90;;;21.55;44.72;99169.25;4974521;28;122828;-77
2023/07/18 04:45:44;;;;;;;;;;;21.20;65.40;;;21.57;44.89;99166.06;4987285;28;114294;-77
2023/07/18 04:48:17;;;;;;;;;;;21.30;65.70;;;21.56;45.50;99161.63;4971039;28;112896;-76
2023/07/18 04:50:45;;;;;;;;;;;21.20;66.10;;;21.58;45.29;99162.88;4966001;28;124305;-78
2023/07/18 04:53:14;;;;;;;;;;;21.30;66.40;;;21.59;45.36;99158.88;4974597;28;122772;-77
2023/07/18 04:55:46;;;;;;;;;;;21.20;66.30;;;21.57;44.84;99161.28;4988534;28;114132;-77
2023/07/18 04:58:12;;;;;;;;;;;21.30;66.30;;;21.58;45.04;99162.88;4979888;28;113577;-78
2023/07/18 05:00:38;;;;;;;;;;;21.30;66.50;;;21.59;45.30;99156.06;4983973;28;124099;-79
2023/07/18 05:03:05;;;;;;;;;;;21.30;66.70;;;21.62;45.11;99160.91;4987895;28;124422;-78
2023/07/18 05:05:36;;;;;;;;;;;21.30;67.00;;;21.61;45.43;99156.50;4988391;28;114641;-76
2023/07/18 05:08:05;;;;;;;;;;;21.30;67.10;;;21.62;45.52;99152.47;4989409;28;113037;-76
2023/07/18 05:10:34;;;;;;;;;;;21.30;67.80;;;21.65;45.79;99158.53;4987418;28;125572;-77
2023/07/18 05:13:00;;;;;;;;;;;21.30;67.50;;;21.66;45.77;99157.38;4974415;28;123946;-78
2023/07/18 05:15:29;;;;;;;;;;;21.30;67.60;;;21.69;45.46;99153.81;4988716;28;115045;-77
2023/07/18 05:17:55;;;;;;;;;;;21.40;67.70;;;21.72;45.76;99155.84;4987669;28;113388;-77
2023/07/18 05:20:22;;;;;;;;;;;21.40;67.80;;;21.77;45.03;99156.34;4980368;28;124597;-78
2023/07/18 05:22:48;;;;;;;;;;;21.40;67.80;;;21.83;45.21;99156.81;4978785;28;122995;-78
2023/07/18 05:25:15;;;;;;;;;;;21.40;67.80;;;21.88;45.17;99156.50;4989560;28;114948;-77
2023/07/18 05:27:44;;;;;;;;;;;21.50;67.90;;;21.92;45.54;99159.34;4987697;28;114654;-76
2023/07/18 05:30:16;;;;;;;;;;;21.50;67.90;;;21.96;45.13;99149.78;4980285;28;124697;-77
2023/07/18 05:32:46;;;;;;;;;;;21.60;67.90;;;21.99;45.05;99149.00;4980110;28;126426;-77
2023/07/18 05:35:15;;;;;;;;;;;21.50;68.10;;;22.03;45.46;99149.88;4990844;28;114095;-77
2023/07/18 05:37:48;;;;;;;;;;;21.60;68.60;;;22.08;45.11;99150.72;4983350;28;114250;-77
2023/07/18 05:40:16;;;;;;;;;;;21.60;68.50;;;22.14;45.42;99135.13;4989596;28;124144;-80
2023/07/18 05:42:45;;;;;;;;;;;21.70;68.80;;;22.24;45.17;99137.31;4987527;28;123677;-77
2023/07/18 05:45:11;;;;;;;;;;;21.70;68.90;;;22.31;44.54;99139.41;4988668;28;114510;-78
2023/07/18 05:47:40;;;;;;;;;;;21.80;68.50;;;22.33;44.60;99143.47;4989748;28;113481;-78
2023/07/18 05:50:07;;;;;;;;;;;21.80;68.20;;;22.35;44.18;99141.06;4982191;28;124208;-77
2023/07/18 05:52:35;;;;;;;;;;;21.80;67.80;;;22.26;43.99;99132.09;4982742;28;123777;-78
2023/07/18 05:55:04;;;;;;;;;;;21.80;67.50;;;22.20;43.91;99136.47;4989675;28;113381;-75
2023/07/18 05:57:30;;;;;;;;;;;21.70;67.50;;;22.19;44.13;99134.81;4969968;28;113018;-78
2023/07/18 05:59:59;;;;;;;;;;;21.70;67.40;;;22.23;44.29;99125.25;4982798;28;123935;-77
2023/07/18 06:02:25;;;;;;;;;;;21.80;67.40;;;22.27;44.09;99125.28;4988101;28;124716;-78
2023/07/18 06:04:51;;;;;;;;;;;21.80;67.30;;;22.34;43.95;99119.75;4984493;28;114338;-77
2023/07/18 06:07:18;;;;;;;;;;;21.90;67.30;;;22.40;43.67;99123.81;4988566;28;114289;-77
2023/07/18 06:09:44;;;;;;;;;;;21.90;67.20;;;22.42;44.14;99120.63;4987520;28;124183;-77
2023/07/18 06:12:11;;;;;;;;;;;22.00;67.30;;;22.44;43.88;99119.06;4987300;28;124112;-78
2023/07/18 06:14:40;;;;;;;;;;;22.00;67.10;;;22.46;43.80;99122.31;4987088;28;115663;-77
2023/07/18 06:17:06;;;;;;;;;;;22.00;67.10;;;22.47;43.55;99121.09;4987008;28;115062;-77
2023/07/18 06:19:33;;;;;;;;;;;22.00;66.90;;;22.55;43.67;99102.28;4978225;28;124654;-79
2023/07/18 06:21:59;;;;;;;;;;;22.10;67.00;;;22.64;43.33;99105.59;4986732;28;124743;-77
2023/07/18 06:24:25;;;;;;;;;;;22.20;67.10;;;22.71;43.45;99110.50;4986963;28;114957;-86
2023/07/18 06:26:52;;;;;;;;;;;22.20;66.90;;;22.80;43.52;99104.56;4988093;28;113648;-79
2023/07/18 06:29:19;;;;;;;;;;;22.30;67.10;;;22.88;43.34;99106.25;4987271;28;124322;-79
2023/07/18 06:31:49;;;;;;;;;;;22.40;67.00;;;22.96;43.08;99107.13;4986428;28;124097;-79
2023/07/18 06:34:17;;;;;;;;;;;22.40;66.70;;;23.03;42.75;99098.78;4975781;28;114638;-77
2023/07/18 06:36:44;;;;;;;;;;;22.50;66.60;;;23.12;42.83;99102.06;4986095;28;114240;-78
2023/07/18 06:39:11;;;;;;;;;;;22.60;66.40;;;23.19;42.13;99096.50;4997723;28;124416;-78
2023/07/18 06:41:40;;;;;;;;;;;22.70;65.90;;;23.28;42.02;99087.69;4988572;28;123718;-82
2023/07/18 06:44:07;;;;;;;;;;;22.70;65.40;;;23.37;42.31;99097.44;4990977;28;112953;-82
2023/07/18 06:46:34;;;;;;;;;;;22.80;66.00;;;23.50;42.23;99088.66;4972723;28;113368;-82
2023/07/18 06:49:00;;;;;;;;;;;22.90;66.20;;;23.62;41.75;99091.16;4988425;28;123322;-81
2023/07/18 06:51:27;;;;;;;;;;;23.00;65.90;;;23.73;41.31;99085.63;4989669;28;123500;-81
2023/07/18 06:53:54;;;;;;;;;;;23.10;65.30;;;23.83;41.19;99086.88;4986840;28;115273;-80
2023/07/18 06:56:20;;;;;;;;;;;23.20;65.10;;;23.94;40.96;99079.28;4990058;28;113055;-81
2023/07/18 06:58:46;;;;;;;;;;;23.30;64.80;;;24.05;40.59;99091.44;4988179;28;124256;-83
2023/07/18 07:01:13;;;;;;;;;;;23.40;64.60;;;24.16;39.96;99081.00;4987714;28;123786;-82
2023/07/18 07:03:39;;;;;;;;;;;23.50;63.90;;;24.25;40.15;99072.13;4985068;28;116368;-82
2023/07/18 07:06:12;;;;;;;;;;;23.60;63.80;;;24.32;39.51;99074.19;4995655;28;113773;-83
2023/07/18 07:08:38;;;;;;;;;;;23.60;62.70;;;24.34;39.46;99080.22;4975169;28;123308;-83
2023/07/18 07:11:06;;;;;;;;;;;23.60;62.60;;;24.39;39.37;99075.00;4992251;28;123877;-83
2023/07/18 07:13:35;;;;;;;;;;;23.70;62.50;;;24.49;39.29;99070.63;4993195;28;114379;-84
2023/07/18 07:16:03;;;;;;;;;;;23.90;62.60;;;24.55;38.47;99060.53;4993879;28;115252;-84
2023/07/18 07:18:30;;;;;;;;;;;23.90;61.60;;;24.58;38.08;99065.41;5000262;28;123976;-81
2023/07/18 07:20:56;;;;;;;;;;;24.00;61.00;;;24.61;38.17;99056.13;4990116;28;124653;-84
2023/07/18 07:23:28;;;;;;;;;;;24.00;60.90;;;24.66;38.40;99052.91;4990749;28;114531;-82
2023/07/18 07:25:54;;;;;;;;;;;24.10;60.80;;;24.71;38.15;99048.06;4989482;28;113699;-82
2023/07/18 07:28:22;;;;;;;;;;;24.10;60.40;;;24.75;38.04;99043.25;4989912;28;124620;-83
2023/07/18 07:30:50;;;;;;;;;;;24.10;60.30;;;24.81;37.58;99038.78;4995280;28;124537;-85
2023/07/18 07:33:16;;;;;;;;;;;24.20;60.10;;;24.89;37.84;99031.94;4992995;28;113769;-82
2023/07/18 07:35:43;;;;;;;;;;;24.30;60.20;;;24.95;37.41;99029.50;4991488;28;113478;-83
2023/07/18 07:38:09;;;;;;;;;;;24.40;59.30;;;24.97;37.79;99036.38;4989838;28;124458;-83
2023/07/18 07:40:36;;;;;;;;;;;24.40;59.60;;;25.06;37.31;99042.41;4991593;28;123048;-84
2023/07/18 07:43:02;;;;;;;;;;;24.50;59.50;;;25.17;37.50;99027.50;4988028;28;113393;-83
2023/07/18 07:45:28;;;;;;;;;;;24.50;59.50;;;25.27;36.96;99029.50;4987719;28;113095;-83
2023/07/18 07:47:54;;;;;;;;;;;24.70;59.40;;;25.37;37.05;99028.69;4991402;28;124141;-84
2023/07/18 07:50:21;;;;;;;;;;;24.70;59.80;;;25.44;36.56;99023.03;4999964;28;124565;-84
2023/07/18 07:52:54;;;;;;;;;;;24.80;58.50;;;25.47;36.11;99015.72;4990262;28;115632;-84
2023/07/18 07:55:21;;;;;;;;;;;24.90;58.20;;;25.51;36.29;99019.38;4990577;28;114782;-83
2023/07/18 07:57:50;;;;;;;;;;;24.90;58.30;;;25.59;36.20;99003.19;4987572;28;124366;-83
2023/07/18 08:00:16;;;;;;;;;;;25.00;58.30;;;25.64;36.12;98997.91;4989034;28;123785;-81
2023/07/18 08:02:43;;;;;;;;;;;25.10;57.70;;;25.63;35.95;99003.97;4988913;28;115025;-81
2023/07/18 08:05:09;;;;;;;;;;;25.00;57.20;;;25.62;35.67;98991.03;4989303;28;114256;-80
2023/07/18 08:07:36;;;;;;;;;;;25.00;57.10;;;25.55;35.27;98998.34;4993418;28;123317;-82
2023/07/18 08:10:03;;;;;;;;;;;25.00;56.70;;;25.49;35.40;98997.13;4996422;28;124196;-81
2023/07/18 08:12:31;;;;;;;;;;;24.90;56.70;;;25.51;35.46;98994.72;4993870;28;114557;-82
2023/07/18 08:14:57;;;;;;;;;;;25.00;56.80;;;25.56;35.68;98987.81;4997250;28;113833;-81
2023/07/18 08:17:23;;;;;;;;;;;25.10;56.50;;;25.61;35.31;98987.41;4996532;28;124296;-82
2023/07/18 08:19:52;;;;;;;;;;;25.10;56.50;;;25.65;35.08;98984.56;4987078;28;123795;-81
2023/07/18 08:22:18;;;;;;;;;;;24.10;55.20;;;25.66;35.36;98983.38;4990389;28;114727;-78
2023/07/18 08:24:44;;;;;;;;;;;25.20;56.10;;;25.71;35.33;98982.91;4988996;28;113748;-79
2023/07/18 08:27:10;;;;;;;;;;;25.20;56.20;;;25.76;35.17;98983.31;4988755;28;124125;-79
2023/07/18 08:29:41;;;;;;;;;;;25.30;56.00;;;25.82;34.94;98982.88;4989894;28;123360;-80
2023/07/18 08:32:08;;;;;;;;;;;25.30;55.90;;;25.87;34.98;98971.97;4990191;28;114610;-80
2023/07/18 08:34:35;;;;;;;;;;;25.30;55.60;;;25.93;34.59;98967.50;4990519;28;114159;-81
2023/07/18 08:37:08;;;;;;;;;;;25.40;55.50;;;25.98;34.48;98967.06;4989039;28;124267;-80
2023/07/18 08:39:37;;;;;;;;;;;25.40;55.50;;;25.99;34.34;98963.00;4991098;28;123190;-81
2023/07/18 08:42:06;;;;;;;;;;;25.50;55.20;;;25.98;34.30;98966.25;4989333;28;115560;-81
2023/07/18 08:44:36;;;;;;;;;;;25.50;54.90;;;25.96;34.32;98961.00;4974283;28;115228;-81
2023/07/18 08:47:05;;;;;;;;;;;25.50;54.80;;;25.97;34.60;98959.78;4990325;28;124555;-81
2023/07/18 08:49:32;;;;;;;;;;;25.50;54.90;;;26.04;34.60;98952.47;4987594;28;123941;-81
2023/07/18 08:52:00;;;;;;;;;;;25.60;54.90;;;26.08;34.25;98953.25;4972131;28;112509;-79
2023/07/18 08:54:26;;;;;;;;;;;25.70;54.80;;;26.13;34.27;98952.81;4991063;28;112778;-81
2023/07/18 08:56:54;;;;;;;;;;;25.60;54.50;;;26.16;33.85;98947.13;4988625;28;124043;-80
2023/07/18 08:59:22;;;;;;;;;;;25.70;54.40;;;26.20;33.68;98947.13;4988396;28;123742;-81
2023/07/18 09:01:50;;;;;;;;;;;25.70;54.10;;;26.23;33.76;98947.09;4988406;28;114777;-81
2023/07/18 09:04:19;;;;;;;;;;;25.70;54.30;;;26.27;34.05;98943.41;4987320;28;113986;-79
2023/07/18 09:07:00;;;;;;;;;;;25.70;53.90;;;26.25;33.58;98935.34;4987824;28;124344;-81
2023/07/18 09:09:26;;;;;;;;;;;25.70;53.30;;;26.25;33.92;98940.19;4978552;28;124542;-80
2023/07/18 09:12:03;;;;;;;;;;;25.80;53.60;;;26.28;33.70;98928.84;4987324;28;114435;-79
2023/07/18 09:14:34;;;;;;;;;;;25.80;53.50;;;26.32;33.51;98921.13;4987988;28;113786;-80
2023/07/18 09:17:03;;;;;;;;;;;25.90;53.50;;;26.40;33.54;98931.16;4972339;28;124301;-79
2023/07/18 09:19:39;;;;;;;;;;;26.00;53.60;;;26.45;33.63;98935.59;4988904;28;124088;-79
2023/07/18 09:22:07;;;;;;;;;;;26.00;53.70;;;26.52;33.69;98932.75;4987526;28;114414;-80
2023/07/18 09:24:36;;;;;;;;;;;26.00;53.60;;;26.60;33.19;98916.50;4989326;28;114417;-79
2023/07/18 09:27:05;;;;;;;;;;;26.10;53.60;;;26.64;33.18;98909.53;4989554;28;124224;-81
2023/07/18 09:29:31;;;;;;;;;;;26.10;53.20;;;26.66;33.41;98909.94;4987275;28;124729;-81
2023/07/18 09:31:58;;;;;;;;;;;26.20;53.00;;;26.68;32.90;98912.38;4984995;28;115126;-81
2023/07/18 09:34:26;;;;;;;;;;;26.20;52.80;;;26.68;33.29;98909.53;4988239;28;114638;-81
2023/07/18 09:36:57;;;;;;;;;;;26.20;52.90;;;26.71;33.45;98914.38;4987306;28;124150;-81
2023/07/18 09:39:26;;;;;;;;;;;26.30;53.00;;;26.75;33.37;98923.63;4986214;28;124040;-81
2023/07/18 09:41:52;;;;;;;;;;;26.30;53.00;;;26.80;33.11;98909.00;4980641;28;114462;-80
2023/07/18 09:44:20;;;;;;;;;;;26.30;52.70;;;26.83;33.29;98908.16;4978887;28;113912;-80
2023/07/18 09:46:49;;;;;;;;;;;26.40;52.70;;;26.88;32.95;98904.06;4976728;28;124858;-80
2023/07/18 09:49:17;;;;;;;;;;;26.40;52.60;;;26.94;32.63;98904.41;4973228;28;124091;-80
2023/07/18 09:52:09;;;;;;;;;;;26.50;52.60;;;27.01;33.06;98913.66;4985883;28;114867;-80
2023/07/18 09:54:36;;;;;;;;;;;26.50;52.70;;;27.07;32.96;98911.16;4976894;28;113740;-80
2023/07/18 09:57:03;;;;;;;;;;;26.60;52.70;;;27.12;32.84;98924.91;4969752;28;124532;-80
2023/07/18 09:59:30;;;;;;;;;;;26.60;52.50;;;27.17;32.58;98926.50;4980501;28;122717;-81
2023/07/18 10:01:59;;;;;;;;;;;26.60;52.40;;;27.23;32.71;98959.66;4986437;28;113761;-81
2023/07/18 10:04:25;;;;;;;;;;;26.70;52.20;;;27.29;32.20;98977.00;4990240;28;112645;-81
2023/07/18 10:06:55;;;;;;;;;;;26.80;52.10;;;27.36;32.46;98991.13;4986484;28;124508;-80
2023/07/18 10:09:23;;;;;;;;;;;26.80;52.00;;;27.41;32.44;98995.56;4979271;28;124274;-81
2023/07/18 10:11:58;;;;;;;;;;;26.90;52.00;;;27.44;31.99;98980.53;4986390;28;114571;-82
2023/07/18 10:14:30;;;;;;;;;;;27.00;51.80;;;27.47;32.03;98969.13;4987288;28;113857;-81
2023/07/18 10:17:05;;;;;;;;;;;27.00;51.60;;;27.49;31.87;98961.00;4978050;28;123989;-80
2023/07/18 10:19:45;;;;;;;;;;;27.10;51.50;;;27.50;31.83;98944.75;4989010;28;124710;-82
2023/07/18 10:22:12;;;;;;;;;;;27.10;51.10;;;27.53;32.08;98926.88;4990232;28;115957;-82
2023/07/18 10:24:51;;;;;;;;;;;27.10;51.20;;;27.55;31.88;98884.69;4985715;28;115086;-83
2023/07/18 10:27:17;;;;;;;;;;;27.10;51.30;;;27.59;31.79;98870.44;4986519;28;124547;-79
2023/07/18 10:30:04;;;;;;;;;;;27.20;51.20;;;27.57;31.91;98851.03;4986572;28;124532;-80
2023/07/18 10:32:32;;;;;;;;;;;27.20;51.10;;;27.58;31.81;98803.56;4984324;28;114532;-83
2023/07/18 10:34:59;;;;;;;;;;;27.20;51.10;;;27.56;32.36;98715.97;4985724;28;113708;-83
2023/07/18 10:37:26;;;;;;;;;;;27.20;51.20;;;27.56;32.17;98599.63;4986235;28;124249;-79
2023/07/18 10:39:53;;;;;;;;;;;27.20;51.20;;;27.55;32.02;98487.34;4974705;28;123954;-80
2023/07/18 10:42:25;;;;;;;;;;;27.10;51.00;;;27.54;32.06;98531.94;4999515;28;114486;-78
2023/07/18 10:45:05;;;;;;;;;;;27.10;51.40;;;27.54;32.57;98701.44;4986364;28;113740;-80
2023/07/18 10:47:37;;;;;;;;;;;27.10;51.80;;;27.57;32.59;98751.66;4988179;28;124274;-81
2023/07/18 10:50:06;;;;;;;;;;;27.10;52.00;;;27.63;32.79;98752.78;4989090;28;123457;-81
2023/07/18 10:52:32;;;;;;;;;;;27.20;52.10;;;27.72;32.15;98774.94;4987873;28;114243;-79
2023/07/18 10:55:00;;;;;;;;;;;27.20;51.80;;;27.74;32.32;98790.31;4991039;28;113434;-79
2023/07/18 10:57:28;;;;;;;;;;;27.30;51.60;;;27.77;32.08;98817.06;4970877;28;123211;-78
2023/07/18 10:59:55;;;;;;;;;;;27.30;51.50;;;27.84;32.29;98853.91;4969642;28;122820;-81
2023/07/18 11:02:22;;;;;;;;;;;27.40;51.80;;;27.94;32.24;98863.47;4969198;28;113574;-81
2023/07/18 11:04:51;;;;;;;;;;;27.50;51.70;;;28.01;31.88;98876.78;4966045;28;112630;-81
2023/07/18 11:07:33;;;;;;;;;;;27.50;51.30;;;28.04;31.96;98916.50;4989255;28;124018;-80
2023/07/18 11:10:00;;;;;;;;;;;27.60;51.10;;;28.07;31.59;98961.09;4988693;28;124780;-81
2023/07/18 11:12:26;;;;;;;;;;;27.60;50.80;;;28.06;31.54;98942.44;4988601;28;116063;-80
2023/07/18 11:14:52;;;;;;;;;;;27.60;50.80;;;28.02;31.79;98918.94;4992025;28;114471;-81